Time;durP1;ratioP1;P1;durP2;ratioP2;P2;SDS_P1;SDS_P2;PMS_P1;PMS_P2;Temp;Humidity;BMP_temperature;BMP_pressure;BME280_temperature;BME280_humidity;BME280_pressure;Samples;Min_cycle;Max_cycle;Signal;HPM_P1;HPM_P2
2024/02/21 00:01:17;;;;;;;;;;;8.10;1.00;;;;;;5020668;28;20012;-87
2024/02/21 00:03:43;;;;;;;;;;;8.10;1.00;;;;;;5021042;28;19921;-86
2024/02/21 00:06:10;;;;;;;;;;;8.20;1.00;;;;;;5020030;28;20065;-86
2024/02/21 00:08:36;;;;;;;;;;;8.10;1.00;;;;;;5020055;28;19966;-86
2024/02/21 00:11:03;;;;;;;;;;;8.10;1.00;;;;;;5019946;28;19936;-86
2024/02/21 00:13:30;;;;;;;;;;;8.10;1.00;;;;;;5032960;28;19928;-85
2024/02/21 00:15:56;;;;;;;;;;;8.00;1.00;;;;;;5035861;28;19961;-86
2024/02/21 00:18:24;;;;;;;;;;;8.10;1.00;;;;;;5026337;28;19943;-86
2024/02/21 00:20:51;;;;;;;;;;;8.10;55.00;;;;;;5025286;28;20040;-86
2024/02/21 00:23:18;;;;;;;;;;;8.00;99.90;;;;;;5023796;28;20400;-87
2024/02/21 00:25:44;;;;;;;;;;;8.00;99.90;;;;;;5025473;28;20014;-87
2024/02/21 00:28:11;;;;;;;;;;;8.00;92.70;;;;;;5025779;28;20034;-87
2024/02/21 00:30:38;;;;;;;;;;;8.00;99.90;;;;;;5025731;28;19947;-87
2024/02/21 00:33:04;;;;;;;;;;;8.00;49.40;;;;;;5023648;28;19947;-86
2024/02/21 00:35:32;;;;;;;;;;;8.00;99.90;;;;;;5023673;28;20051;-88
2024/02/21 00:37:59;;;;;;;;;;;8.00;1.00;;;;;;5021537;28;20050;-87
2024/02/21 00:40:26;;;;;;;;;;;8.00;1.00;;;;;;5033598;28;20033;-87
2024/02/21 00:42:52;;;;;;;;;;;8.00;1.00;;;;;;5029152;28;20386;-87
2024/02/21 00:45:19;;;;;;;;;;;8.10;1.00;;;;;;5025230;28;19949;-87
2024/02/21 00:47:45;;;;;;;;;;;7.90;1.00;;;;;;5020159;28;19968;-87
2024/02/21 00:50:12;;;;;;;;;;;8.00;99.90;;;;;;5020908;28;19962;-87
2024/02/21 00:52:40;;;;;;;;;;;8.00;99.90;;;;;;5020150;28;20356;-87
2024/02/21 00:55:07;;;;;;;;;;;8.00;99.90;;;;;;5020477;28;20328;-87
2024/02/21 00:57:34;;;;;;;;;;;8.10;99.90;;;;;;5020705;28;20041;-88
2024/02/21 01:00:00;;;;;;;;;;;8.10;1.00;;;;;;5026081;28;19928;-88
2024/02/21 01:02:27;;;;;;;;;;;8.10;1.00;;;;;;5038072;28;19950;-89
2024/02/21 01:04:54;;;;;;;;;;;8.10;1.00;;;;;;5037900;28;19988;-87
2024/02/21 01:07:20;;;;;;;;;;;8.10;1.00;;;;;;5039041;28;19969;-87
2024/02/21 06:58:56;;;;;;;;;;;7.70;1.00;;;;;;5030661;23;19961;-87
2024/02/21 07:01:55;;;;;;;;;;;7.70;1.00;;;;;;5022207;28;19949;-87
2024/02/21 07:04:30;;;;;;;;;;;7.70;1.00;;;;;;5023309;28;19978;-87
2024/02/21 07:10:00;;;;;;;;;;;7.60;1.00;;;;;;5040125;23;20469;-88
2024/02/21 07:12:27;;;;;;;;;;;7.70;1.00;;;;;;5044125;28;19944;-87
2024/02/21 07:14:55;;;;;;;;;;;7.70;1.00;;;;;;5051530;28;19921;-86
2024/02/21 07:17:22;;;;;;;;;;;7.80;1.00;;;;;;5057385;28;19943;-86
2024/02/21 07:19:48;;;;;;;;;;;7.80;1.00;;;;;;5056985;28;20027;-87
2024/02/21 07:22:17;;;;;;;;;;;;;;;;;;5057410;28;19951;-87
2024/02/21 07:24:44;;;;;;;;;;;;;;;;;;5056432;28;19985;-88
2024/02/21 07:27:11;;;;;;;;;;;;;;;;;;5044733;28;20002;-87
2024/02/21 07:29:38;;;;;;;;;;;;;;;;;;5044439;28;19928;-87
2024/02/21 07:32:05;;;;;;;;;;;;;;;;;;5044463;28;19980;-87
2024/02/21 07:34:33;;;;;;;;;;;;;;;;;;5044805;28;19979;-86
2024/02/21 07:37:01;;;;;;;;;;;7.90;1.00;;;;;;5045692;28;19992;-87
2024/02/21 07:39:27;;;;;;;;;;;7.80;1.00;;;;;;5045053;28;19937;-87
2024/02/21 07:41:54;;;;;;;;;;;7.80;1.00;;;;;;5043709;28;19941;-86
2024/02/21 07:44:21;;;;;;;;;;;7.80;1.00;;;;;;5041351;28;19974;-88
2024/02/21 07:46:47;;;;;;;;;;;7.80;1.00;;;;;;5041223;28;19965;-87
2024/02/21 07:49:14;;;;;;;;;;;7.90;1.00;;;;;;5046161;28;20005;-87
2024/02/21 07:51:42;;;;;;;;;;;7.80;1.00;;;;;;5046597;28;19972;-87
2024/02/21 07:54:10;;;;;;;;;;;7.90;1.00;;;;;;5051719;28;19963;-86
2024/02/21 07:56:36;;;;;;;;;;;7.80;1.00;;;;;;5045541;28;20462;-87
2024/02/21 07:59:03;;;;;;;;;;;7.90;1.00;;;;;;5045215;28;19941;-87
2024/02/21 08:01:30;;;;;;;;;;;8.00;1.00;;;;;;5045456;28;20327;-89
2024/02/21 08:03:57;;;;;;;;;;;7.90;1.00;;;;;;5044520;28;19965;-87
2024/02/21 08:06:23;;;;;;;;;;;8.00;1.00;;;;;;5043829;28;19977;-87
2024/02/21 08:08:50;;;;;;;;;;;8.10;1.00;;;;;;5045339;28;20372;-86
2024/02/21 08:11:18;;;;;;;;;;;8.00;1.00;;;;;;5053641;28;19963;-86
2024/02/21 08:13:45;;;;;;;;;;;8.10;1.00;;;;;;5055731;28;20007;-88
2024/02/21 08:16:11;;;;;;;;;;;8.10;1.00;;;;;;5056982;28;19927;-87
2024/02/21 08:18:38;;;;;;;;;;;8.10;1.00;;;;;;5057967;28;19949;-86
2024/02/21 08:21:05;;;;;;;;;;;8.20;1.00;;;;;;5047307;28;19927;-87
2024/02/21 08:23:33;;;;;;;;;;;8.20;1.00;;;;;;5044583;28;20000;-87
2024/02/21 08:25:59;;;;;;;;;;;8.20;99.90;;;;;;5045637;28;20014;-87
2024/02/21 08:28:27;;;;;;;;;;;8.20;99.90;;;;;;5052777;28;19998;-87
2024/02/21 08:30:54;;;;;;;;;;;8.10;99.90;;;;;;5043246;28;19957;-87
2024/02/21 08:33:24;;;;;;;;;;;8.40;99.90;;;;;;5046619;28;20409;-87
2024/02/21 08:35:51;;;;;;;;;;;8.30;99.90;;;;;;5051437;28;19921;-87
2024/02/21 08:38:18;;;;;;;;;;;8.20;99.90;;;;;;5060364;28;19959;-86
2024/02/21 08:40:45;;;;;;;;;;;8.40;99.90;;;;;;5050591;28;19955;-86
2024/02/21 08:43:12;;;;;;;;;;;8.30;99.90;;;;;;5045616;28;19941;-87
2024/02/21 08:45:40;;;;;;;;;;;8.40;99.90;;;;;;5044511;28;19966;-86
2024/02/21 08:48:08;;;;;;;;;;;8.40;99.90;;;;;;5045902;28;20022;-87
2024/02/21 08:50:36;;;;;;;;;;;8.50;99.90;;;;;;5047003;28;19987;-87
2024/02/21 08:53:03;;;;;;;;;;;8.50;99.90;;;;;;5048033;28;19921;-87
2024/02/21 08:55:29;;;;;;;;;;;8.60;99.90;;;;;;5047632;28;19961;-87
2024/02/21 08:57:56;;;;;;;;;;;8.50;99.90;;;;;;5045889;28;20010;-87
2024/02/21 09:00:26;;;;;;;;;;;8.60;99.90;;;;;;5047813;28;19955;-87
2024/02/21 09:02:55;;;;;;;;;;;8.60;99.90;;;;;;5057202;28;19944;-86
2024/02/21 09:05:22;;;;;;;;;;;8.70;99.90;;;;;;5059333;28;19936;-85
2024/02/21 09:07:49;;;;;;;;;;;8.80;99.90;;;;;;5061145;28;19960;-85
2024/02/21 09:10:16;;;;;;;;;;;8.80;99.90;;;;;;5060981;28;19955;-86
2024/02/21 09:12:43;;;;;;;;;;;8.80;99.90;;;;;;5061133;28;19909;-87
2024/02/21 09:15:11;;;;;;;;;;;8.90;99.90;;;;;;5055869;28;19976;-87
2024/02/21 09:17:39;;;;;;;;;;;8.90;99.90;;;;;;5052751;28;19948;-87
2024/02/21 09:20:09;;;;;;;;;;;8.90;99.90;;;;;;5057323;28;19959;-88
2024/02/21 09:22:37;;;;;;;;;;;9.00;99.90;;;;;;5056478;28;20029;-88
2024/02/21 09:25:04;;;;;;;;;;;9.10;99.90;;;;;;5054259;28;19931;-86
2024/02/21 09:27:31;;;;;;;;;;;9.00;99.90;;;;;;5053503;28;19964;-87
2024/02/21 09:29:58;;;;;;;;;;;9.20;99.90;;;;;;5056848;28;19960;-87
2024/02/21 09:32:24;;;;;;;;;;;9.20;99.90;;;;;;5055190;28;19928;-86
2024/02/21 09:34:51;;;;;;;;;;;9.20;24.80;;;;;;5058931;28;19981;-86
2024/02/21 09:37:19;;;;;;;;;;;9.00;20.10;;;;;;5059080;28;19949;-86
2024/02/21 09:39:47;;;;;;;;;;;9.20;25.50;;;;;;5054705;28;19959;-86
2024/02/21 09:42:15;;;;;;;;;;;9.40;30.00;;;;;;5051606;28;20373;-87
2024/02/21 09:44:43;;;;;;;;;;;9.40;1.50;;;;;;5052316;28;20056;-87
2024/02/21 09:47:12;;;;;;;;;;;9.40;1.00;;;;;;5052948;28;19993;-86
2024/02/21 09:49:41;;;;;;;;;;;9.40;1.00;;;;;;5052783;28;19986;-88
2024/02/21 09:52:08;;;;;;;;;;;9.40;1.00;;;;;;5056027;28;19937;-87
2024/02/21 09:54:36;;;;;;;;;;;9.50;1.00;;;;;;5058798;28;19930;-86
2024/02/21 09:57:03;;;;;;;;;;;9.70;1.00;;;;;;5058405;28;19952;-86
2024/02/21 09:59:31;;;;;;;;;;;9.50;1.00;;;;;;5057587;28;19939;-86
2024/02/21 10:02:00;;;;;;;;;;;9.60;1.00;;;;;;5051877;28;19959;-87
2024/02/21 10:04:26;;;;;;;;;;;9.70;1.00;;;;;;5051297;28;19924;-87
2024/02/21 10:06:54;;;;;;;;;;;9.90;1.00;;;;;;5050348;28;19959;-87
2024/02/21 10:09:22;;;;;;;;;;;9.90;1.00;;;;;;5048002;28;19983;-87
2024/02/21 10:11:51;;;;;;;;;;;9.90;99.90;;;;;;5055591;28;19986;-87
2024/02/21 10:14:18;;;;;;;;;;;9.90;99.90;;;;;;5056086;28;20030;-87
2024/02/21 10:16:45;;;;;;;;;;;10.00;99.90;;;;;;5047921;28;19999;-88
2024/02/21 10:19:18;;;;;;;;;;;10.00;99.90;;;;;;5051707;28;19964;-88
2024/02/21 10:21:45;;;;;;;;;;;10.30;99.90;;;;;;5042418;28;20070;-89
2024/02/21 10:24:12;;;;;;;;;;;10.00;99.90;;;;;;5041938;28;20023;-88
2024/02/21 10:26:39;;;;;;;;;;;10.10;99.90;;;;;;5042163;28;19942;-89
2024/02/21 10:29:07;;;;;;;;;;;10.10;99.90;;;;;;5044648;28;19964;-88
2024/02/21 10:31:34;;;;;;;;;;;10.10;99.90;;;;;;5047085;28;19964;-88
2024/02/21 10:34:03;;;;;;;;;;;10.10;99.90;;;;;;5049542;28;19952;-87
2024/02/21 10:36:30;;;;;;;;;;;10.10;99.90;;;;;;5049055;28;19921;-89
2024/02/21 10:38:57;;;;;;;;;;;10.10;99.90;;;;;;5048770;28;19920;-87
2024/02/21 10:41:24;;;;;;;;;;;10.10;99.90;;;;;;5050957;28;19956;-87
2024/02/21 10:43:52;;;;;;;;;;;10.10;99.90;;;;;;5057114;28;19984;-87
2024/02/21 10:46:21;;;;;;;;;;;10.10;99.90;;;;;;5057937;28;19927;-87
2024/02/21 10:48:48;;;;;;;;;;;10.10;99.90;;;;;;5047102;28;19921;-88
2024/02/21 10:51:19;;;;;;;;;;;10.10;99.90;;;;;;5054741;28;19966;-87
2024/02/21 10:53:48;;;;;;;;;;;10.10;99.90;;;;;;5054250;28;19925;-88
2024/02/21 10:56:23;;;;;;;;;;;10.00;99.90;;;;;;5048814;28;19943;-87
2024/02/21 10:58:50;;;;;;;;;;;10.40;99.90;;;;;;5057061;28;19905;-86
2024/02/21 11:01:18;;;;;;;;;;;9.80;1.00;;;;;;5058581;28;19931;-88
2024/02/21 11:03:47;;;;;;;;;;;9.80;1.00;;;;;;5057594;28;19942;-86
2024/02/21 11:06:14;;;;;;;;;;;9.80;1.00;;;;;;5049960;28;19971;-87
2024/02/21 11:08:40;;;;;;;;;;;9.80;1.00;;;;;;5051228;28;19962;-87
2024/02/21 11:11:07;;;;;;;;;;;9.80;1.00;;;;;;5047930;28;20364;-86
2024/02/21 11:13:36;;;;;;;;;;;10.00;1.00;;;;;;5047336;28;20412;-88
2024/02/21 11:16:10;;;;;;;;;;;10.10;1.00;;;;;;5047259;28;20309;-86
2024/02/21 11:18:37;;;;;;;;;;;10.30;1.00;;;;;;5049627;28;19991;-87
2024/02/21 11:21:05;;;;;;;;;;;10.30;1.00;;;;;;5058132;28;19939;-87
2024/02/21 11:23:32;;;;;;;;;;;10.30;1.00;;;;;;5058652;28;19905;-86
2024/02/21 11:26:05;;;;;;;;;;;10.30;1.00;;;;;;5051095;28;19967;-87
2024/02/21 11:28:32;;;;;;;;;;;10.40;1.00;;;;;;5045994;28;19986;-87
2024/02/21 11:31:07;;;;;;;;;;;10.30;1.00;;;;;;5048994;28;19955;-87
2024/02/21 11:33:34;;;;;;;;;;;10.40;1.00;;;;;;5053305;28;19928;-86
2024/02/21 11:36:01;;;;;;;;;;;10.60;99.90;;;;;;5058018;28;19921;-87
2024/02/21 11:38:29;;;;;;;;;;;10.60;99.90;;;;;;5054213;28;19946;-87
2024/02/21 11:40:59;;;;;;;;;;;10.70;99.90;;;;;;5050472;28;19921;-88
2024/02/21 11:43:26;;;;;;;;;;;10.80;99.90;;;;;;5049726;28;19962;-87
2024/02/21 11:45:59;;;;;;;;;;;10.70;95.10;;;;;;5044939;28;19927;-87
2024/02/21 11:48:26;;;;;;;;;;;10.70;99.90;;;;;;5050572;28;19959;-87
2024/02/21 11:50:54;;;;;;;;;;;;;;;;;;5058723;28;19905;-87
2024/02/21 11:53:21;;;;;;;;;;;;;;;;;;5057184;28;19940;-87
2024/02/21 11:55:49;;;;;;;;;;;;;;;;;;5058335;28;19931;-88
2024/02/21 11:58:16;;;;;;;;;;;;;;;;;;5057824;28;19912;-87
2024/02/21 12:00:43;;;;;;;;;;;;;;;;;;5056352;28;19964;-87
2024/02/21 12:03:11;;;;;;;;;;;;;;;;;;5054152;28;19946;-87
2024/02/21 12:05:38;;;;;;;;;;;;;;;;;;5049129;28;19921;-86
2024/02/21 12:08:07;;;;;;;;;;;11.20;1.00;;;;;;5046706;28;20001;-87
2024/02/21 12:10:35;;;;;;;;;;;;;;;;;;5048116;28;19928;-87
2024/02/21 12:13:09;;;;;;;;;;;11.20;1.00;;;;;;5051887;28;19958;-87
2024/02/21 12:15:35;;;;;;;;;;;11.20;99.90;;;;;;5056166;28;19956;-86
2024/02/21 12:18:02;;;;;;;;;;;11.30;99.90;;;;;;5051706;28;19972;-86
2024/02/21 12:20:30;;;;;;;;;;;11.30;99.90;;;;;;5059587;28;19946;-87
2024/02/21 12:22:56;;;;;;;;;;;11.40;99.90;;;;;;5059548;28;19912;-87
2024/02/21 12:25:26;;;;;;;;;;;11.40;87.50;;;;;;5059879;28;20419;-86
2024/02/21 12:27:53;;;;;;;;;;;11.50;99.90;;;;;;5055031;28;20267;-86
2024/02/21 12:30:20;;;;;;;;;;;11.50;48.30;;;;;;5058402;28;19958;-87
2024/02/21 12:32:48;;;;;;;;;;;11.50;7.50;;;;;;5057946;28;20063;-86
2024/02/21 12:35:15;;;;;;;;;;;11.70;1.00;;;;;;5061610;28;19921;-88
2024/02/21 12:37:42;;;;;;;;;;;;;;;;;;5062049;28;19943;-88
2024/02/21 12:40:10;;;;;;;;;;;;;;;;;;5059130;28;19921;-88
2024/02/21 12:42:37;;;;;;;;;;;;;;;;;;5053489;28;19920;-87
2024/02/21 12:45:04;;;;;;;;;;;;;;;;;;5052999;28;19959;-86
2024/02/21 12:47:31;;;;;;;;;;;;;;;;;;5056518;28;19920;-87
2024/02/21 12:49:58;;;;;;;;;;;;;;;;;;5056338;28;19921;-87
2024/02/21 12:52:25;;;;;;;;;;;;;;;;;;5058231;28;19913;-87
2024/02/21 12:54:56;;;;;;;;;;;;;;;;;;5057028;28;19923;-87
2024/02/21 12:57:23;;;;;;;;;;;;;;;;;;5055380;28;19961;-87
2024/02/21 12:59:50;;;;;;;;;;;;;;;;;;5056638;28;19959;-88
2024/02/21 13:02:18;;;;;;;;;;;;;;;;;;5058189;28;19944;-87
2024/02/21 13:04:44;;;;;;;;;;;;;;;;;;5060562;28;19982;-88
2024/02/21 13:07:11;;;;;;;;;;;;;;;;;;5060814;28;19947;-87
2024/02/21 15:54:36;;;;;;;;;;;10.50;99.90;;;;;;5007173;23;19952;-87
2024/02/21 15:57:05;;;;;;;;;;;10.60;99.90;;;;;;5061111;28;19905;-88
2024/02/21 15:59:32;;;;;;;;;;;10.50;99.90;;;;;;5060578;28;19971;-87
2024/02/21 16:02:00;;;;;;;;;;;10.40;99.90;;;;;;5061360;28;19925;-87
2024/02/21 16:04:28;;;;;;;;;;;10.40;99.90;;;;;;5060972;28;19965;-87
2024/02/21 16:06:55;;;;;;;;;;;10.30;99.90;;;;;;5056163;28;20018;-87
2024/02/21 16:09:22;;;;;;;;;;;10.30;99.90;;;;;;5053601;28;19952;-87
2024/02/21 16:11:50;;;;;;;;;;;10.20;99.90;;;;;;5048170;28;20012;-87
2024/02/21 16:14:18;;;;;;;;;;;10.20;99.90;;;;;;5046157;28;19929;-86
2024/02/21 16:16:44;;;;;;;;;;;10.10;99.90;;;;;;5048471;28;19925;-88
2024/02/21 16:19:11;;;;;;;;;;;10.10;99.90;;;;;;5047454;28;19964;-87
2024/02/21 16:21:38;;;;;;;;;;;10.00;99.90;;;;;;5048423;28;19971;-87
2024/02/21 16:24:05;;;;;;;;;;;10.00;99.90;;;;;;5049684;28;19971;-86
2024/02/21 16:26:34;;;;;;;;;;;9.90;99.90;;;;;;5047928;28;19947;-87
2024/02/21 16:29:03;;;;;;;;;;;9.80;99.90;;;;;;5054074;28;19956;-87
2024/02/21 16:31:30;;;;;;;;;;;9.80;99.90;;;;;;5057211;28;20052;-87
2024/02/21 16:33:56;;;;;;;;;;;9.80;99.90;;;;;;5048566;28;19975;-86
2024/02/21 16:36:23;;;;;;;;;;;9.70;99.90;;;;;;5046817;28;19967;-86
2024/02/21 16:38:51;;;;;;;;;;;9.70;99.90;;;;;;5046408;28;20052;-87
2024/02/21 16:41:18;;;;;;;;;;;9.60;99.90;;;;;;5045731;28;19970;-87
2024/02/21 16:43:45;;;;;;;;;;;9.60;99.90;;;;;;5046417;28;19921;-87
2024/02/21 16:46:14;;;;;;;;;;;9.50;99.90;;;;;;5045490;28;20054;-87
2024/02/21 16:48:41;;;;;;;;;;;9.50;99.90;;;;;;5045594;28;19921;-87
2024/02/21 16:51:08;;;;;;;;;;;9.40;99.90;;;;;;5046349;28;20000;-87
2024/02/21 16:53:35;;;;;;;;;;;9.40;99.90;;;;;;5048007;28;19940;-86
2024/02/21 16:56:02;;;;;;;;;;;9.30;99.90;;;;;;5047984;28;19969;-88
2024/02/21 16:58:30;;;;;;;;;;;9.30;99.90;;;;;;5047908;28;19960;-88
2024/02/21 17:00:59;;;;;;;;;;;9.30;99.90;;;;;;5047353;28;19928;-87
2024/02/21 17:03:28;;;;;;;;;;;9.30;99.90;;;;;;5047443;28;19941;-87
2024/02/21 17:05:55;;;;;;;;;;;9.20;99.90;;;;;;5046249;28;19921;-86
2024/02/21 17:08:22;;;;;;;;;;;9.20;99.90;;;;;;5046685;28;19943;-87
2024/02/21 17:10:49;;;;;;;;;;;9.20;99.90;;;;;;5047511;28;20058;-88
2024/02/21 17:13:15;;;;;;;;;;;9.10;99.90;;;;;;5048329;28;19921;-87
2024/02/21 17:15:42;;;;;;;;;;;9.10;99.90;;;;;;5053809;28;19905;-86
2024/02/21 17:18:09;;;;;;;;;;;9.10;99.90;;;;;;5060617;28;19972;-88
2024/02/21 17:20:37;;;;;;;;;;;9.00;1.00;;;;;;5059885;28;19921;-88
2024/02/21 17:23:05;;;;;;;;;;;9.00;1.00;;;;;;5057253;28;19955;-88
2024/02/21 17:25:32;;;;;;;;;;;9.00;1.00;;;;;;5058855;28;19917;-86
2024/02/21 17:27:58;;;;;;;;;;;9.00;1.00;;;;;;5054237;28;19921;-86
2024/02/21 17:30:25;;;;;;;;;;;8.90;1.00;;;;;;5052249;28;19921;-87
2024/02/21 17:32:52;;;;;;;;;;;8.90;1.00;;;;;;5050976;28;19925;-87
2024/02/21 17:35:19;;;;;;;;;;;8.80;1.00;;;;;;5050120;28;19921;-87
2024/02/21 17:37:47;;;;;;;;;;;8.90;1.00;;;;;;5047285;28;19921;-87
2024/02/21 17:40:14;;;;;;;;;;;8.80;1.00;;;;;;5045849;28;19921;-86
2024/02/21 17:42:41;;;;;;;;;;;8.70;1.00;;;;;;5046159;28;19942;-86
2024/02/21 17:45:08;;;;;;;;;;;8.70;1.00;;;;;;5054388;28;19996;-86
2024/02/21 17:47:35;;;;;;;;;;;8.70;1.00;;;;;;5054306;28;19939;-87
2024/02/21 17:50:13;;;;;;;;;;;8.70;1.00;;;;;;5048083;28;19995;-88
2024/02/21 17:52:39;;;;;;;;;;;8.70;1.00;;;;;;5053758;28;19956;-88
2024/02/21 17:55:09;;;;;;;;;;;8.70;1.00;;;;;;5048969;28;19921;-86
2024/02/21 17:57:36;;;;;;;;;;;8.70;1.00;;;;;;5045164;28;19928;-87
2024/02/21 18:00:03;;;;;;;;;;;8.70;1.00;;;;;;5051593;28;19928;-87
2024/02/21 18:02:29;;;;;;;;;;;8.70;1.00;;;;;;5050208;28;19989;-87
2024/02/21 18:04:56;;;;;;;;;;;8.60;1.00;;;;;;5045080;28;19928;-87
2024/02/21 18:07:23;;;;;;;;;;;8.60;1.00;;;;;;5045970;28;19971;-87
2024/02/21 18:09:51;;;;;;;;;;;8.70;1.00;;;;;;5049507;28;19976;-88
2024/02/21 18:12:19;;;;;;;;;;;8.60;1.00;;;;;;5056688;28;19980;-87
2024/02/21 18:14:45;;;;;;;;;;;8.60;1.00;;;;;;5054951;28;19928;-87
2024/02/21 18:17:14;;;;;;;;;;;8.70;1.00;;;;;;5049497;28;19964;-87
2024/02/21 18:19:40;;;;;;;;;;;8.70;1.00;;;;;;5047120;28;19959;-86
2024/02/21 18:22:07;;;;;;;;;;;8.70;1.00;;;;;;5054586;28;19920;-87
2024/02/21 18:24:34;;;;;;;;;;;8.60;1.00;;;;;;5046065;28;19957;-86
2024/02/21 18:27:01;;;;;;;;;;;8.60;1.00;;;;;;5045444;28;19921;-87
2024/02/21 18:29:29;;;;;;;;;;;8.50;1.00;;;;;;5045948;28;19991;-86
2024/02/21 18:31:56;;;;;;;;;;;8.50;99.90;;;;;;5045171;28;20351;-87
2024/02/21 18:34:22;;;;;;;;;;;8.50;33.30;;;;;;5045137;28;19966;-87
2024/02/21 18:36:49;;;;;;;;;;;8.50;99.90;;;;;;5045212;28;19991;-87
2024/02/21 18:39:16;;;;;;;;;;;8.50;99.90;;;;;;5044854;28;19997;-87
2024/02/21 18:41:43;;;;;;;;;;;8.50;99.90;;;;;;5045470;28;19963;-87
2024/02/21 18:44:11;;;;;;;;;;;8.50;99.90;;;;;;5046862;28;19921;-87
2024/02/21 18:46:40;;;;;;;;;;;8.50;30.40;;;;;;5046564;28;19931;-87
2024/02/21 18:49:07;;;;;;;;;;;8.50;16.30;;;;;;5043697;28;19921;-87
2024/02/21 18:51:34;;;;;;;;;;;8.50;1.00;;;;;;5039159;28;19920;-89
2024/02/21 18:54:02;;;;;;;;;;;8.40;51.50;;;;;;5037999;28;19921;-88
2024/02/21 18:56:29;;;;;;;;;;;8.40;99.90;;;;;;5038073;28;19921;-88
2024/02/21 18:58:56;;;;;;;;;;;8.40;99.90;;;;;;5038653;28;19956;-87
2024/02/21 19:01:23;;;;;;;;;;;8.40;99.90;;;;;;5043083;28;20020;-86
2024/02/21 19:03:51;;;;;;;;;;;8.40;99.90;;;;;;5051289;28;19923;-86
2024/02/21 19:06:19;;;;;;;;;;;8.50;99.90;;;;;;5059273;28;19905;-87
2024/02/21 19:08:46;;;;;;;;;;;8.40;99.90;;;;;;5058756;28;19965;-87
2024/02/21 19:11:12;;;;;;;;;;;8.40;99.90;;;;;;5052796;28;19971;-86
2024/02/21 19:13:39;;;;;;;;;;;8.40;61.70;;;;;;5045336;28;19967;-86
2024/02/21 19:16:06;;;;;;;;;;;8.40;99.90;;;;;;5046848;28;19931;-86
2024/02/21 19:18:33;;;;;;;;;;;8.50;99.90;;;;;;5048807;28;19951;-85
2024/02/21 19:21:01;;;;;;;;;;;8.50;99.90;;;;;;5048193;28;20024;-84
2024/02/21 19:23:28;;;;;;;;;;;8.40;99.90;;;;;;5053591;28;19928;-84
2024/02/21 19:25:54;;;;;;;;;;;8.50;99.90;;;;;;5056897;28;19905;-83
2024/02/21 19:28:22;;;;;;;;;;;8.40;99.90;;;;;;5058476;28;19928;-85
2024/02/21 19:30:48;;;;;;;;;;;8.40;99.90;;;;;;5058406;28;19947;-85
2024/02/21 19:33:15;;;;;;;;;;;8.40;99.90;;;;;;5049601;28;19928;-85
2024/02/21 19:35:43;;;;;;;;;;;8.40;99.90;;;;;;5048662;28;19928;-86
2024/02/21 19:38:11;;;;;;;;;;;8.40;1.00;;;;;;5051435;28;19928;-84
2024/02/21 19:40:38;;;;;;;;;;;8.40;99.90;;;;;;5053952;28;19939;-83
2024/02/21 19:43:04;;;;;;;;;;;8.50;99.90;;;;;;5054084;28;19952;-84
2024/02/21 19:45:34;;;;;;;;;;;8.40;1.00;;;;;;5053261;28;19940;-85
2024/02/21 19:48:00;;;;;;;;;;;8.30;1.00;;;;;;5053645;28;19928;-84
2024/02/21 19:50:32;;;;;;;;;;;8.30;99.90;;;;;;5052176;28;19925;-86
2024/02/21 19:52:59;;;;;;;;;;;8.30;1.00;;;;;;5044693;28;20015;-87
2024/02/21 19:55:28;;;;;;;;;;;8.30;1.00;;;;;;5044352;28;19921;-86
2024/02/21 19:57:55;;;;;;;;;;;8.30;99.90;;;;;;5044859;28;19985;-86
2024/02/21 20:00:22;;;;;;;;;;;8.30;99.90;;;;;;5046192;28;19939;-86
2024/02/21 20:02:51;;;;;;;;;;;8.20;99.90;;;;;;5048178;28;19958;-86
2024/02/21 20:05:18;;;;;;;;;;;8.30;99.90;;;;;;5046573;28;19978;-86
2024/02/21 20:07:45;;;;;;;;;;;8.30;99.90;;;;;;5044503;28;19988;-86
2024/02/21 20:10:13;;;;;;;;;;;8.20;99.90;;;;;;5044807;28;19921;-86
2024/02/21 20:12:41;;;;;;;;;;;8.20;48.00;;;;;;5047413;28;19943;-86
2024/02/21 20:15:09;;;;;;;;;;;8.20;99.90;;;;;;5049849;28;19982;-86
2024/02/21 20:17:35;;;;;;;;;;;8.30;25.20;;;;;;5048193;28;19968;-85
2024/02/21 20:20:02;;;;;;;;;;;8.30;99.90;;;;;;5047295;28;19981;-86
2024/02/21 20:22:29;;;;;;;;;;;8.30;99.90;;;;;;5046942;28;19921;-85
2024/02/21 20:24:56;;;;;;;;;;;8.30;1.00;;;;;;5048248;28;19958;-85
2024/02/21 20:27:22;;;;;;;;;;;8.40;1.00;;;;;;5053107;28;19928;-85
2024/02/21 20:29:50;;;;;;;;;;;8.30;1.00;;;;;;5051182;28;19941;-85
2024/02/21 20:32:17;;;;;;;;;;;8.20;99.90;;;;;;5054180;28;20011;-85
2024/02/21 20:34:44;;;;;;;;;;;8.30;1.00;;;;;;5052909;28;19972;-86
2024/02/21 20:37:11;;;;;;;;;;;8.40;1.00;;;;;;5056159;28;19921;-85
2024/02/21 20:39:38;;;;;;;;;;;8.40;99.90;;;;;;5054390;28;20022;-87
2024/02/21 20:42:05;;;;;;;;;;;8.50;99.90;;;;;;5050421;28;20321;-87
2024/02/21 20:44:32;;;;;;;;;;;8.40;99.90;;;;;;5053096;28;19921;-87
2024/02/21 20:47:00;;;;;;;;;;;8.40;14.40;;;;;;5052164;28;19953;-87
2024/02/21 20:49:26;;;;;;;;;;;8.50;1.00;;;;;;5052659;28;19921;-86
2024/02/21 20:51:53;;;;;;;;;;;8.50;1.00;;;;;;5052058;28;19971;-87
2024/02/21 20:54:19;;;;;;;;;;;8.50;1.00;;;;;;5052197;28;20320;-85
2024/02/21 20:57:01;;;;;;;;;;;8.50;1.00;;;;;;5053561;28;20002;-85
2024/02/21 20:59:27;;;;;;;;;;;8.60;99.90;;;;;;5053013;28;20356;-86
2024/02/21 21:01:54;;;;;;;;;;;8.60;99.90;;;;;;5054473;28;19922;-87
2024/02/21 21:04:22;;;;;;;;;;;8.60;99.90;;;;;;5054386;28;19960;-86
2024/02/21 21:06:51;;;;;;;;;;;8.50;99.90;;;;;;5056140;28;19960;-84
2024/02/21 21:09:22;;;;;;;;;;;8.50;99.90;;;;;;5058176;28;19921;-85
2024/02/21 21:11:49;;;;;;;;;;;8.60;99.90;;;;;;5053966;28;19921;-84
2024/02/21 21:14:15;;;;;;;;;;;8.60;99.90;;;;;;5052961;28;19946;-86
2024/02/21 21:16:48;;;;;;;;;;;8.60;99.90;;;;;;5051911;28;19921;-85
2024/02/21 21:19:15;;;;;;;;;;;8.60;99.90;;;;;;5048802;28;19959;-86
2024/02/21 21:21:48;;;;;;;;;;;8.50;99.90;;;;;;5049249;28;19964;-84
2024/02/21 21:24:25;;;;;;;;;;;8.60;99.90;;;;;;5056200;28;19919;-84
2024/02/21 21:26:52;;;;;;;;;;;8.60;99.90;;;;;;5057805;28;19979;-84
2024/02/21 21:29:23;;;;;;;;;;;8.60;99.90;;;;;;5058332;28;19921;-83
2024/02/21 21:31:54;;;;;;;;;;;8.70;92.90;;;;;;5051902;28;20011;-84
2024/02/21 21:34:21;;;;;;;;;;;8.60;95.00;;;;;;5043470;28;20013;-83
2024/02/21 21:36:49;;;;;;;;;;;8.60;77.50;;;;;;5044046;28;19927;-85
2024/02/21 21:39:18;;;;;;;;;;;8.60;87.70;;;;;;5045633;28;20270;-84
2024/02/21 21:41:44;;;;;;;;;;;8.60;28.50;;;;;;5046471;28;19982;-85
2024/02/21 21:44:11;;;;;;;;;;;8.60;12.70;;;;;;5047388;28;19943;-84
2024/02/21 21:46:39;;;;;;;;;;;8.60;10.40;;;;;;5049736;28;19921;-84
2024/02/21 21:49:06;;;;;;;;;;;8.60;1.00;;;;;;5050390;28;20406;-85
2024/02/21 21:51:32;;;;;;;;;;;8.70;1.00;;;;;;5054418;28;19966;-86
2024/02/21 21:54:00;;;;;;;;;;;8.70;1.00;;;;;;5053067;28;19974;-84
2024/02/21 21:56:27;;;;;;;;;;;8.70;1.00;;;;;;5048041;28;20027;-86
2024/02/21 21:58:54;;;;;;;;;;;8.70;1.00;;;;;;5049113;28;19963;-86
2024/02/21 22:01:21;;;;;;;;;;;8.70;1.00;;;;;;5047409;28;19944;-86
2024/02/21 22:03:48;;;;;;;;;;;8.70;1.00;;;;;;5048522;28;19909;-86
2024/02/21 22:06:15;;;;;;;;;;;8.70;1.00;;;;;;5049155;28;19957;-80
2024/02/21 22:08:44;;;;;;;;;;;8.70;1.00;;;;;;5055712;28;19921;-84
2024/02/21 22:11:13;;;;;;;;;;;8.70;1.00;;;;;;5056973;28;19951;-82
2024/02/21 22:13:40;;;;;;;;;;;8.70;1.00;;;;;;5050062;28;19949;-86
2024/02/21 22:16:10;;;;;;;;;;;8.80;1.00;;;;;;5046623;28;19959;-81
2024/02/21 22:18:37;;;;;;;;;;;8.80;1.00;;;;;;5054266;28;19959;-85
2024/02/21 22:21:03;;;;;;;;;;;8.70;1.00;;;;;;5055984;28;19969;-83
2024/02/21 22:23:30;;;;;;;;;;;8.70;1.00;;;;;;5050494;28;20312;-80
2024/02/21 22:25:57;;;;;;;;;;;8.70;1.00;;;;;;5057682;28;19956;-81
2024/02/21 22:28:28;;;;;;;;;;;8.80;3.30;;;;;;5054498;28;19994;-82
2024/02/21 22:30:55;;;;;;;;;;;8.80;1.00;;;;;;5051098;28;20018;-83
2024/02/21 22:33:22;;;;;;;;;;;8.80;1.00;;;;;;5046552;28;20062;-82
2024/02/21 22:35:49;;;;;;;;;;;8.70;1.00;;;;;;5042005;28;19951;-83
2024/02/21 22:38:16;;;;;;;;;;;8.70;1.00;;;;;;5046722;28;19943;-82
2024/02/21 22:40:44;;;;;;;;;;;8.70;1.00;;;;;;5042894;28;19921;-82
2024/02/21 22:43:11;;;;;;;;;;;8.70;1.00;;;;;;5043234;28;19921;-82
2024/02/21 22:45:39;;;;;;;;;;;8.70;1.00;;;;;;5042267;28;19928;-83
2024/02/21 22:48:07;;;;;;;;;;;8.70;1.00;;;;;;5040922;28;19976;-83
2024/02/21 22:50:37;;;;;;;;;;;8.80;1.00;;;;;;5041547;28;19967;-84
2024/02/21 22:53:05;;;;;;;;;;;8.70;1.00;;;;;;5056230;28;19921;-84
2024/02/21 22:55:32;;;;;;;;;;;8.70;1.00;;;;;;5057251;28;19959;-83
2024/02/21 22:57:59;;;;;;;;;;;8.70;1.00;;;;;;5055252;28;19921;-83
2024/02/21 23:00:27;;;;;;;;;;;8.80;1.00;;;;;;5053028;28;19940;-82
2024/02/21 23:02:55;;;;;;;;;;;8.80;1.00;;;;;;5049849;28;20397;-84
2024/02/21 23:05:23;;;;;;;;;;;8.80;1.00;;;;;;5039100;28;20284;-84
2024/02/21 23:07:52;;;;;;;;;;;8.80;1.00;;;;;;5036766;28;19921;-84
2024/02/21 23:10:23;;;;;;;;;;;8.70;1.00;;;;;;5037984;28;20456;-86
2024/02/21 23:12:50;;;;;;;;;;;8.70;1.00;;;;;;5039288;28;19921;-84
2024/02/21 23:15:17;;;;;;;;;;;8.70;1.00;;;;;;5052670;28;19959;-83
2024/02/21 23:17:47;;;;;;;;;;;8.70;1.00;;;;;;5053928;28;19943;-83
2024/02/21 23:20:15;;;;;;;;;;;8.70;1.00;;;;;;5055760;28;19921;-83
2024/02/21 23:22:43;;;;;;;;;;;8.70;1.00;;;;;;5050013;28;20073;-83